Time;durP1;ratioP1;P1;durP2;ratioP2;P2;SDS_P1;SDS_P2;PMS_P1;PMS_P2;Temp;Humidity;BMP_temperature;BMP_pressure;BME280_temperature;BME280_humidity;BME280_pressure;Samples;Min_cycle;Max_cycle;Signal;HPM_P1;HPM_P2
2023/05/23 00:01:36;;;;;;;6.73;5.13;;;;;;;;;;5112235;28;20572;-87
2023/05/23 00:04:01;;;;;;;6.80;5.67;;;;;;;;;;5113728;28;21125;-90
2023/05/23 00:06:27;;;;;;;9.43;4.97;;;;;;;;;;5114161;28;20428;-91
2023/05/23 00:08:53;;;;;;;6.77;4.77;;;;;;;;;;5114941;28;20258;-88
2023/05/23 00:11:25;;;;;;;7.00;5.00;;;;;;;;;;5116821;28;20192;-88
2023/05/23 00:13:51;;;;;;;5.90;5.30;;;;;;;;;;5117054;28;20415;-89
2023/05/23 00:16:17;;;;;;;7.13;6.40;;;;;;;;;;5098616;28;20459;-89
2023/05/23 00:18:44;;;;;;;7.23;6.20;;;;;;;;;;5116805;28;20170;-88
2023/05/23 00:21:10;;;;;;;6.57;5.53;;;;;;;;;;5116560;28;20478;-87
2023/05/23 00:23:37;;;;;;;8.37;6.17;;;;;;;;;;5116691;28;20506;-88
2023/05/23 00:26:03;;;;;;;6.60;5.90;;;;;;;;;;5116776;28;20424;-89
2023/05/23 00:28:29;;;;;;;6.90;6.20;;;;;;;;;;5116679;28;20522;-88
2023/05/23 00:30:55;;;;;;;7.17;6.47;;;;;;;;;;5116400;28;20411;-84
2023/05/23 00:33:21;;;;;;;7.13;6.43;;;;;;;;;;5116644;28;20400;-89
2023/05/23 00:35:48;;;;;;;6.87;5.83;;;;;;;;;;5117043;28;20627;-79
2023/05/23 00:38:14;;;;;;;7.47;6.13;;;;;;;;;;5116955;28;20177;-85
2023/05/23 00:40:40;;;;;;;6.90;6.20;;;;;;;;;;5116691;28;20911;-87
2023/05/23 00:43:07;;;;;;;7.57;6.83;;;;;;;;;;5117063;28;20417;-80
2023/05/23 00:45:33;;;;;;;9.03;7.27;;;;;;;;;;5116586;28;20256;-91
2023/05/23 00:47:59;;;;;;;7.67;6.87;;;;;;;;;;5116841;28;20446;-79
2023/05/23 00:50:28;;;;;;;6.53;5.83;;;;;;;;;;5116855;28;20415;-81
2023/05/23 00:52:55;;;;;;;8.00;7.30;;;;;;;;;;5117033;28;20404;-82
2023/05/23 00:55:21;;;;;;;7.80;6.80;;;;;;;;;;5116963;28;20880;-80
2023/05/23 00:57:47;;;;;;;8.10;6.37;;;;;;;;;;5116841;28;20468;-86
2023/05/23 01:00:14;;;;;;;8.23;7.40;;;;;;;;;;5116287;28;20443;-82
2023/05/23 01:02:43;;;;;;;7.97;7.17;;;;;;;;;;5116727;28;20478;-81
2023/05/23 01:05:10;;;;;;;7.27;6.40;;;;;;;;;;5117032;28;20412;-83
2023/05/23 01:07:36;;;;;;;8.03;6.63;;;;;;;;;;5117039;28;20419;-80
2023/05/23 01:10:03;;;;;;;6.80;5.60;;;;;;;;;;5116786;28;20416;-89
2023/05/23 01:12:31;;;;;;;10.30;7.10;;;;;;;;;;5115799;28;20407;-79
2023/05/23 01:14:57;;;;;;;10.00;7.40;;;;;;;;;;5115807;28;20468;-80
2023/05/23 01:17:26;;;;;;;8.73;6.93;;;;;;;;;;5115994;28;20410;-79
2023/05/23 01:19:59;;;;;;;8.40;7.50;;;;;;;;;;5097954;28;20173;-90
2023/05/23 01:22:51;;;;;;;6.47;5.87;;;;;;;;;;5116085;28;20514;-81
2023/05/23 01:25:35;;;;;;;7.83;7.07;;;;;;;;;;5116161;28;20420;-80
2023/05/23 01:28:02;;;;;;;8.47;7.20;;;;;;;;;;5115710;28;20420;-88
2023/05/23 01:30:31;;;;;;;7.90;6.93;;;;;;;;;;5096456;28;20506;-79
2023/05/23 01:32:57;;;;;;;10.10;6.57;;;;;;;;;;5116027;28;20414;-79
2023/05/23 01:35:26;;;;;;;7.00;5.80;;;;;;;;;;5097318;28;20416;-86
2023/05/23 01:37:55;;;;;;;9.50;7.90;;;;;;;;;;5115732;28;20438;-79
2023/05/23 01:40:22;;;;;;;7.90;7.10;;;;;;;;;;5115707;28;20415;-80
2023/05/23 01:42:48;;;;;;;7.43;6.73;;;;;;;;;;5115166;28;21001;-81
2023/05/23 01:45:15;;;;;;;10.17;7.90;;;;;;;;;;5114683;28;20441;-79
2023/05/23 01:47:41;;;;;;;8.50;7.07;;;;;;;;;;5115506;28;20414;-79
2023/05/23 01:50:08;;;;;;;8.03;7.17;;;;;;;;;;5114929;28;20772;-81
2023/05/23 01:52:34;;;;;;;7.87;7.07;;;;;;;;;;5115136;28;20416;-79
2023/05/23 01:55:00;;;;;;;9.10;8.10;;;;;;;;;;5115191;28;20417;-86
2023/05/23 01:57:28;;;;;;;7.70;6.93;;;;;;;;;;5115387;28;20423;-82
2023/05/23 01:59:54;;;;;;;8.30;7.50;;;;;;;;;;5114774;28;20403;-80
2023/05/23 02:02:20;;;;;;;9.10;7.87;;;;;;;;;;5114415;28;20986;-79
2023/05/23 02:04:46;;;;;;;7.67;6.93;;;;;;;;;;5114845;28;20171;-81
2023/05/23 02:07:12;;;;;;;8.00;7.23;;;;;;;;;;5114866;28;20484;-80
2023/05/23 02:09:38;;;;;;;9.93;7.67;;;;;;;;;;5114642;28;20170;-79
2023/05/23 02:12:04;;;;;;;8.10;7.20;;;;;;;;;;5114682;28;20195;-81
2023/05/23 02:14:30;;;;;;;9.17;8.27;;;;;;;;;;5114608;28;20869;-79
2023/05/23 02:16:56;;;;;;;10.50;9.43;;;;;;;;;;5096549;28;20437;-87
2023/05/23 02:19:22;;;;;;;10.20;9.20;;;;;;;;;;5096258;28;20211;-86
2023/05/23 02:21:48;;;;;;;13.03;10.60;;;;;;;;;;5096346;28;20479;-86
2023/05/23 02:24:14;;;;;;;19.60;16.90;;;;;;;;;;5114328;28;20408;-86
2023/05/23 02:26:40;;;;;;;23.57;20.43;;;;;;;;;;5114504;28;20175;-84
2023/05/23 02:29:06;;;;;;;27.80;23.20;;;;;;;;;;5113985;28;20466;-84
2023/05/23 02:31:32;;;;;;;21.93;19.43;;;;;;;;;;5095914;28;20417;-86
2023/05/23 02:33:58;;;;;;;21.27;18.00;;;;;;;;;;5114398;28;20876;-79
2023/05/23 02:36:24;;;;;;;20.33;18.30;;;;;;;;;;5114486;28;20190;-85
2023/05/23 02:38:50;;;;;;;19.40;17.30;;;;;;;;;;5114145;28;20532;-87
2023/05/23 02:41:16;;;;;;;19.07;17.03;;;;;;;;;;5114061;28;20963;-80
2023/05/23 02:43:41;;;;;;;20.40;18.30;;;;;;;;;;5114373;28;20760;-81
2023/05/23 02:46:07;;;;;;;22.50;18.60;;;;;;;;;;5114163;28;20183;-80
2023/05/23 02:48:33;;;;;;;23.03;20.00;;;;;;;;;;5114610;28;20174;-79
2023/05/23 02:50:59;;;;;;;25.63;20.70;;;;;;;;;;5113991;28;21146;-82
2023/05/23 02:53:25;;;;;;;23.10;20.20;;;;;;;;;;5114636;28;20176;-83
2023/05/23 02:55:51;;;;;;;28.33;23.77;;;;;;;;;;5114386;28;20168;-80
2023/05/23 02:58:17;;;;;;;27.93;20.13;;;;;;;;;;5114106;28;20426;-86
2023/05/23 03:00:43;;;;;;;30.53;22.60;;;;;;;;;;5095272;28;20219;-81
2023/05/23 03:03:10;;;;;;;29.37;22.83;;;;;;;;;;5114458;28;20928;-79
2023/05/23 03:05:36;;;;;;;25.50;21.50;;;;;;;;;;5114191;28;20738;-88
2023/05/23 03:08:02;;;;;;;26.47;21.17;;;;;;;;;;5114389;28;20421;-88
2023/05/23 03:10:28;;;;;;;30.57;23.20;;;;;;;;;;5115025;28;20432;-92
2023/05/23 03:12:54;;;;;;;29.87;24.30;;;;;;;;;;5114829;28;20176;-87
2023/05/23 03:15:22;;;;;;;31.40;23.07;;;;;;;;;;5114215;28;20414;-84
2023/05/23 03:17:48;;;;;;;32.53;24.07;;;;;;;;;;5095451;28;20424;-81
2023/05/23 03:20:15;;;;;;;26.57;20.80;;;;;;;;;;5113947;28;20411;-80
2023/05/23 03:22:42;;;;;;;30.77;22.20;;;;;;;;;;5113813;28;20211;-83
2023/05/23 03:25:08;;;;;;;26.70;22.70;;;;;;;;;;5114418;28;20399;-81
2023/05/23 03:27:34;;;;;;;28.70;21.00;;;;;;;;;;5095521;28;20427;-86
2023/05/23 03:30:00;;;;;;;27.30;20.40;;;;;;;;;;5113492;28;20739;-84
2023/05/23 03:32:26;;;;;;;27.13;20.90;;;;;;;;;;5113982;28;20409;-79
2023/05/23 03:34:52;;;;;;;28.53;19.47;;;;;;;;;;5113734;28;20951;-85
2023/05/23 03:37:18;;;;;;;23.33;18.17;;;;;;;;;;5113708;28;20176;-79
2023/05/23 03:39:43;;;;;;;27.37;20.90;;;;;;;;;;5113146;28;20248;-79
2023/05/23 03:42:09;;;;;;;27.53;22.00;;;;;;;;;;5094834;28;20215;-79
2023/05/23 03:44:35;;;;;;;24.93;21.23;;;;;;;;;;5115745;28;20198;-83
2023/05/23 03:47:01;;;;;;;24.37;20.27;;;;;;;;;;5117113;28;20218;-85
2023/05/23 03:49:27;;;;;;;26.40;20.47;;;;;;;;;;5116965;28;20171;-80
2023/05/23 03:51:53;;;;;;;25.07;20.43;;;;;;;;;;5116972;28;20410;-79
2023/05/23 03:54:19;;;;;;;23.57;18.53;;;;;;;;;;5116897;28;20507;-83
2023/05/23 03:56:45;;;;;;;19.80;16.90;;;;;;;;;;5116805;28;20190;-80
2023/05/23 03:59:11;;;;;;;20.70;17.67;;;;;;;;;;5116505;28;20407;-86
2023/05/23 04:01:38;;;;;;;21.80;16.73;;;;;;;;;;5116539;28;20226;-79
2023/05/23 04:04:04;;;;;;;23.57;16.30;;;;;;;;;;5116784;28;20530;-79
2023/05/23 04:06:30;;;;;;;22.67;16.97;;;;;;;;;;5116708;28;20417;-79
2023/05/23 04:08:56;;;;;;;23.50;17.23;;;;;;;;;;5098304;28;20509;-80
2023/05/23 04:11:22;;;;;;;20.77;15.33;;;;;;;;;;5116598;28;20260;-79
2023/05/23 04:13:48;;;;;;;23.30;17.20;;;;;;;;;;5116209;28;20508;-80
2023/05/23 04:16:15;;;;;;;22.47;15.97;;;;;;;;;;5116528;28;20814;-80
2023/05/23 04:18:42;;;;;;;20.33;16.33;;;;;;;;;;5116477;28;20415;-82
2023/05/23 04:21:08;;;;;;;24.47;16.73;;;;;;;;;;5116409;28;20475;-81
2023/05/23 04:23:34;;;;;;;25.60;17.70;;;;;;;;;;5116342;28;20851;-81
2023/05/23 04:26:00;;;;;;;27.67;18.50;;;;;;;;;;5098039;28;20431;-86
2023/05/23 04:28:29;;;;;;;24.37;18.67;;;;;;;;;;5097712;28;20201;-81
2023/05/23 04:30:55;;;;;;;28.20;21.03;;;;;;;;;;5116348;28;20179;-84
2023/05/23 04:33:21;;;;;;;26.97;18.80;;;;;;;;;;5095730;28;20419;-82
2023/05/23 04:35:48;;;;;;;27.70;17.70;;;;;;;;;;5096264;28;20167;-81
2023/05/23 04:38:14;;;;;;;26.87;17.37;;;;;;;;;;5095620;28;20420;-80
2023/05/23 04:40:40;;;;;;;24.23;17.40;;;;;;;;;;5095572;28;20422;-82
2023/05/23 04:43:08;;;;;;;18.40;15.03;;;;;;;;;;5095613;28;20428;-80
2023/05/23 04:45:34;;;;;;;21.70;15.77;;;;;;;;;;5095198;28;20831;-81
2023/05/23 04:47:59;;;;;;;20.17;16.10;;;;;;;;;;5094157;28;20423;-81
2023/05/23 04:50:30;;;;;;;23.23;14.40;;;;;;;;;;5095375;28;20412;-82
2023/05/23 04:52:56;;;;;;;21.20;14.33;;;;;;;;;;5094073;28;20182;-81
2023/05/23 04:55:22;;;;;;;24.07;14.73;;;;;;;;;;5094990;28;20411;-81
2023/05/23 04:57:48;;;;;;;20.40;14.83;;;;;;;;;;5095304;28;20179;-79
2023/05/23 05:00:14;;;;;;;22.50;14.23;;;;;;;;;;5094733;28;20199;-80
2023/05/23 05:02:40;;;;;;;19.00;15.00;;;;;;;;;;5095062;28;20566;-81
2023/05/23 05:05:06;;;;;;;21.80;16.50;;;;;;;;;;5095168;28;20430;-80
2023/05/23 05:07:34;;;;;;;21.07;15.40;;;;;;;;;;5095068;28;20416;-81
2023/05/23 05:10:00;;;;;;;22.83;15.77;;;;;;;;;;5095102;28;20401;-79
2023/05/23 05:12:26;;;;;;;18.37;13.40;;;;;;;;;;5093689;28;20892;-80
2023/05/23 05:14:52;;;;;;;23.87;15.03;;;;;;;;;;5094600;28;20418;-80
2023/05/23 05:17:18;;;;;;;21.87;13.70;;;;;;;;;;5094968;28;20166;-81
2023/05/23 05:19:45;;;;;;;17.70;13.00;;;;;;;;;;5094812;28;20487;-82
2023/05/23 05:22:11;;;;;;;24.00;15.70;;;;;;;;;;5094886;28;20481;-81
2023/05/23 05:24:39;;;;;;;18.73;14.27;;;;;;;;;;5094576;28;20410;-80
2023/05/23 05:27:05;;;;;;;21.50;14.60;;;;;;;;;;5094708;28;20843;-79
2023/05/23 05:29:32;;;;;;;23.20;14.13;;;;;;;;;;5094117;28;20439;-80
2023/05/23 05:32:00;;;;;;;25.27;15.43;;;;;;;;;;5094641;28;20989;-80
2023/05/23 05:34:26;;;;;;;21.37;14.70;;;;;;;;;;5094341;28;20859;-81
2023/05/23 05:36:54;;;;;;;20.23;15.03;;;;;;;;;;5094678;28;20501;-88
2023/05/23 05:39:22;;;;;;;18.33;13.70;;;;;;;;;;5094534;28;20448;-82
2023/05/23 05:41:48;;;;;;;22.37;16.53;;;;;;;;;;5094286;28;20829;-80
2023/05/23 05:44:14;;;;;;;28.97;16.73;;;;;;;;;;5094051;28;20493;-79
2023/05/23 05:46:39;;;;;;;30.77;18.13;;;;;;;;;;5094441;28;20178;-80
2023/05/23 05:49:05;;;;;;;25.63;18.37;;;;;;;;;;5094361;28;20423;-81
2023/05/23 05:51:31;;;;;;;26.97;17.03;;;;;;;;;;5093084;28;20210;-85
2023/05/23 05:53:57;;;;;;;27.73;16.60;;;;;;;;;;5094227;28;20407;-81
2023/05/23 05:56:23;;;;;;;29.30;18.40;;;;;;;;;;5094301;28;20805;-86
2023/05/23 05:58:49;;;;;;;35.73;19.20;;;;;;;;;;5093810;28;20421;-80
2023/05/23 06:01:16;;;;;;;28.53;19.80;;;;;;;;;;5093780;28;20479;-81
2023/05/23 06:03:42;;;;;;;30.83;20.57;;;;;;;;;;5094130;28;20420;-85
2023/05/23 06:06:09;;;;;;;27.73;17.90;;;;;;;;;;5093404;28;20506;-81
2023/05/23 06:08:34;;;;;;;24.60;16.47;;;;;;;;;;5093954;28;20522;-85
2023/05/23 06:11:00;;;;;;;24.47;16.50;;;;;;;;;;5092435;28;20500;-81
2023/05/23 06:13:26;;;;;;;24.07;16.53;;;;;;;;;;5093397;28;20184;-82
2023/05/23 06:15:52;;;;;;;24.80;17.50;;;;;;;;;;5092674;28;20619;-87
2023/05/23 06:18:18;;;;;;;29.47;20.07;;;;;;;;;;5093819;28;20239;-82
2023/05/23 06:20:44;;;;;;;22.23;17.43;;;;;;;;;;5093751;28;20254;-81
2023/05/23 06:23:10;;;;;;;24.57;16.13;;;;;;;;;;5094048;28;20175;-83
2023/05/23 06:25:36;;;;;;;26.97;18.23;;;;;;;;;;5092384;28;20179;-86
2023/05/23 06:28:02;;;;;;;25.60;18.57;;;;;;;;;;5093639;28;20615;-81
2023/05/23 06:30:28;;;;;;;26.43;17.47;;;;;;;;;;5093396;28;20203;-82
2023/05/23 06:32:54;;;;;;;25.60;17.57;;;;;;;;;;5093567;28;20424;-81
2023/05/23 06:35:20;;;;;;;27.83;19.00;;;;;;;;;;5093483;28;20468;-85
2023/05/23 06:37:47;;;;;;;27.30;19.40;;;;;;;;;;5093579;28;20415;-85
2023/05/23 06:40:13;;;;;;;28.90;19.00;;;;;;;;;;5093873;28;20177;-84
2023/05/23 06:42:39;;;;;;;25.70;18.20;;;;;;;;;;5096386;28;20471;-86
2023/05/23 06:45:05;;;;;;;23.50;19.10;;;;;;;;;;5113379;28;20920;-85
2023/05/23 06:47:31;;;;;;;25.70;17.73;;;;;;;;;;5095492;28;20942;-85
2023/05/23 06:49:57;;;;;;;27.77;18.77;;;;;;;;;;5113881;28;20411;-84
2023/05/23 06:52:26;;;;;;;28.77;17.87;;;;;;;;;;5113676;28;20426;-86
2023/05/23 06:54:52;;;;;;;26.20;17.57;;;;;;;;;;5113660;28;20528;-87
2023/05/23 06:57:18;;;;;;;28.13;19.30;;;;;;;;;;5113651;28;20416;-86
2023/05/23 06:59:43;;;;;;;31.27;21.23;;;;;;;;;;5113269;28;20181;-88
2023/05/23 07:02:09;;;;;;;27.23;18.67;;;;;;;;;;5095184;28;20807;-83
2023/05/23 07:04:35;;;;;;;25.07;18.70;;;;;;;;;;5095338;28;20174;-85
2023/05/23 07:07:01;;;;;;;28.07;18.40;;;;;;;;;;5095347;28;20430;-85
2023/05/23 07:09:27;;;;;;;24.67;16.30;;;;;;;;;;5113478;28;20175;-87
2023/05/23 07:11:56;;;;;;;23.17;15.67;;;;;;;;;;5095409;28;20446;-89
2023/05/23 07:14:22;;;;;;;25.70;16.00;;;;;;;;;;5113502;28;20186;-90
2023/05/23 07:16:48;;;;;;;18.70;14.33;;;;;;;;;;5095958;28;20419;-89
2023/05/23 07:19:13;;;;;;;19.43;13.73;;;;;;;;;;5118113;28;20177;-86
2023/05/23 07:21:39;;;;;;;20.37;13.87;;;;;;;;;;5099256;28;20238;-82
2023/05/23 07:24:05;;;;;;;22.60;15.20;;;;;;;;;;5099453;28;20411;-81
2023/05/23 07:26:31;;;;;;;17.13;12.80;;;;;;;;;;5117626;28;20239;-83
2023/05/23 07:28:58;;;;;;;16.93;11.63;;;;;;;;;;5117548;28;20486;-81
2023/05/23 07:31:24;;;;;;;15.50;12.07;;;;;;;;;;5117725;28;20491;-82
2023/05/23 07:33:50;;;;;;;14.23;11.20;;;;;;;;;;5099424;28;20493;-81
2023/05/23 07:36:15;;;;;;;17.20;12.60;;;;;;;;;;5117108;28;20493;-80
2023/05/23 07:38:41;;;;;;;13.30;10.87;;;;;;;;;;5117520;28;20200;-82
2023/05/23 07:41:07;;;;;;;14.60;11.70;;;;;;;;;;5098850;28;20457;-81
2023/05/23 07:43:33;;;;;;;14.50;12.33;;;;;;;;;;5116765;28;20201;-75
2023/05/23 07:45:59;;;;;;;10.60;8.40;;;;;;;;;;5117091;28;20638;-77
2023/05/23 07:48:28;;;;;;;11.27;8.43;;;;;;;;;;5117170;28;20317;-80
2023/05/23 07:50:54;;;;;;;10.57;7.67;;;;;;;;;;5116888;28;20411;-75
2023/05/23 07:53:23;;;;;;;10.83;7.70;;;;;;;;;;5108613;28;20767;-79
2023/05/23 07:55:49;;;;;;;8.27;7.20;;;;;;;;;;5096424;28;20407;-81
2023/05/23 07:58:15;;;;;;;9.67;7.87;;;;;;;;;;5096171;28;20899;-75
2023/05/23 08:00:41;;;;;;;9.80;8.40;;;;;;;;;;5096164;28;20451;-81
2023/05/23 08:03:07;;;;;;;9.40;7.20;;;;;;;;;;5096340;28;20820;-83
2023/05/23 08:05:33;;;;;;;6.53;5.83;;;;;;;;;;5096214;28;20413;-77
2023/05/23 08:07:58;;;;;;;7.73;6.13;;;;;;;;;;5094863;28;20424;-85
2023/05/23 08:10:27;;;;;;;8.60;7.30;;;;;;;;;;5095731;28;20502;-84
2023/05/23 08:12:53;;;;;;;5.80;5.13;;;;;;;;;;5095800;28;20170;-85
2023/05/23 08:15:19;;;;;;;7.83;6.10;;;;;;;;;;5096159;28;20893;-85
2023/05/23 08:17:44;;;;;;;7.13;5.17;;;;;;;;;;5096160;28;20415;-80
2023/05/23 08:20:11;;;;;;;8.07;5.80;;;;;;;;;;5094786;28;20511;-85
2023/05/23 08:22:37;;;;;;;5.93;5.30;;;;;;;;;;5095953;28;20242;-76
2023/05/23 08:25:03;;;;;;;5.03;4.43;;;;;;;;;;5095962;28;20438;-86
2023/05/23 08:27:30;;;;;;;6.00;4.30;;;;;;;;;;5095942;28;20179;-87
2023/05/23 08:29:56;;;;;;;6.10;4.97;;;;;;;;;;5094919;28;20412;-77
2023/05/23 08:32:22;;;;;;;4.60;4.10;;;;;;;;;;5095870;28;20416;-85
2023/05/23 08:34:48;;;;;;;4.03;3.63;;;;;;;;;;5095693;28;20195;-76
2023/05/23 08:37:14;;;;;;;4.43;3.47;;;;;;;;;;5095753;28;20415;-87
2023/05/23 08:39:40;;;;;;;4.10;3.50;;;;;;;;;;5095719;28;20415;-77
2023/05/23 08:42:06;;;;;;;5.10;3.77;;;;;;;;;;5095590;28;20830;-85
2023/05/23 08:44:32;;;;;;;5.83;3.30;;;;;;;;;;5095299;28;20865;-85
2023/05/23 08:47:01;;;;;;;5.70;4.17;;;;;;;;;;5095513;28;20427;-77
2023/05/23 08:49:27;;;;;;;4.57;3.67;;;;;;;;;;5095512;28;20180;-83
2023/05/23 08:51:53;;;;;;;5.00;2.97;;;;;;;;;;5095478;28;20776;-83
2023/05/23 08:54:21;;;;;;;6.40;3.90;;;;;;;;;;5095427;28;20171;-82
2023/05/23 08:56:47;;;;;;;4.20;3.03;;;;;;;;;;5095459;28;20481;-85
2023/05/23 08:59:14;;;;;;;4.53;3.80;;;;;;;;;;5094924;28;20407;-78
2023/05/23 09:01:41;;;;;;;4.00;3.60;;;;;;;;;;5095059;28;20484;-85
2023/05/23 09:04:07;;;;;;;4.40;2.53;;;;;;;;;;5095240;28;20762;-86
2023/05/23 09:06:33;;;;;;;5.33;2.60;;;;;;;;;;5095213;28;20429;-83
2023/05/23 09:08:59;;;;;;;3.93;2.83;;;;;;;;;;5095136;28;20404;-79
2023/05/23 09:11:24;;;;;;;3.60;1.73;;;;;;;;;;5095173;28;20513;-77
2023/05/23 09:13:50;;;;;;;3.40;2.13;;;;;;;;;;5094608;28;20252;-86
2023/05/23 09:16:17;;;;;;;2.57;2.00;;;;;;;;;;5094929;28;20226;-76
2023/05/23 09:18:43;;;;;;;3.40;2.20;;;;;;;;;;5095012;28;20176;-76
2023/05/23 09:21:09;;;;;;;3.97;2.43;;;;;;;;;;5094762;28;20541;-85
2023/05/23 09:23:36;;;;;;;3.20;2.80;;;;;;;;;;5094852;28;20436;-76
2023/05/23 09:26:03;;;;;;;2.77;2.23;;;;;;;;;;5094830;28;20407;-76
2023/05/23 09:28:29;;;;;;;4.10;2.90;;;;;;;;;;5094301;28;20413;-85
2023/05/23 09:31:02;;;;;;;2.70;2.10;;;;;;;;;;5094757;28;20411;-86
2023/05/23 09:33:39;;;;;;;4.20;2.80;;;;;;;;;;5094640;28;20414;-87
2023/05/23 09:36:06;;;;;;;4.47;2.77;;;;;;;;;;5094616;28;20456;-86
2023/05/23 09:38:32;;;;;;;6.13;2.47;;;;;;;;;;5094632;28;20432;-87
2023/05/23 09:40:58;;;;;;;4.47;2.83;;;;;;;;;;5093532;28;20439;-87
2023/05/23 09:43:24;;;;;;;5.13;2.87;;;;;;;;;;5094295;28;20412;-87
2023/05/23 09:45:51;;;;;;;7.63;4.47;;;;;;;;;;5094445;28;20499;-88
2023/05/23 09:48:17;;;;;;;7.30;3.90;;;;;;;;;;5094547;28;20465;-88
2023/05/23 09:50:46;;;;;;;5.00;3.97;;;;;;;;;;5094564;28;20888;-87
2023/05/23 09:53:11;;;;;;;8.50;5.13;;;;;;;;;;5094547;28;20168;-88
2023/05/23 09:55:39;;;;;;;6.80;5.20;;;;;;;;;;5094331;28;20406;-87
2023/05/23 09:58:05;;;;;;;6.77;4.20;;;;;;;;;;5093879;28;20403;-86
2023/05/23 10:00:31;;;;;;;7.03;5.17;;;;;;;;;;5094017;28;20552;-86
2023/05/23 10:03:06;;;;;;;7.10;4.23;;;;;;;;;;5094149;28;20479;-86
2023/05/23 10:05:34;;;;;;;6.87;4.03;;;;;;;;;;5094441;28;20424;-88
2023/05/23 10:08:02;;;;;;;5.87;3.70;;;;;;;;;;5094184;28;20552;-88
2023/05/23 10:10:31;;;;;;;6.87;4.50;;;;;;;;;;5094237;28;20413;-86
2023/05/23 10:12:58;;;;;;;7.83;4.27;;;;;;;;;;5093829;28;20420;-76
2023/05/23 10:15:26;;;;;;;5.07;2.93;;;;;;;;;;5093860;28;20408;-77
2023/05/23 10:17:55;;;;;;;4.70;2.60;;;;;;;;;;5093920;28;20412;-76
2023/05/23 10:20:24;;;;;;;4.57;1.73;;;;;;;;;;5092518;28;20420;-76
2023/05/23 10:22:50;;;;;;;4.97;1.93;;;;;;;;;;5093677;28;20480;-77
2023/05/23 10:25:16;;;;;;;3.83;2.10;;;;;;;;;;5093745;28;20453;-77
2023/05/23 10:27:42;;;;;;;2.20;1.33;;;;;;;;;;5092092;28;20431;-80
2023/05/23 10:30:09;;;;;;;3.40;1.47;;;;;;;;;;5093610;28;20415;-77
2023/05/23 10:32:35;;;;;;;3.77;1.63;;;;;;;;;;5093562;28;20500;-76
2023/05/23 10:35:07;;;;;;;4.30;1.60;;;;;;;;;;5092309;28;20905;-77
2023/05/23 10:37:53;;;;;;;4.43;1.87;;;;;;;;;;5093551;28;20776;-77
2023/05/23 10:40:27;;;;;;;3.80;2.17;;;;;;;;;;5076078;28;20452;-77
2023/05/23 10:42:56;;;;;;;2.40;1.53;;;;;;;;;;5093096;28;20464;-77
2023/05/23 10:45:23;;;;;;;2.90;1.80;;;;;;;;;;5093387;28;20409;-76
2023/05/23 10:47:51;;;;;;;3.83;2.10;;;;;;;;;;5093263;28;20408;-77
2023/05/23 10:50:31;;;;;;;6.90;2.13;;;;;;;;;;5093369;28;20827;-78
2023/05/23 10:52:57;;;;;;;3.37;1.70;;;;;;;;;;5093135;28;20410;-88
2023/05/23 10:55:23;;;;;;;4.03;1.60;;;;;;;;;;5091999;28;20417;-77
2023/05/23 10:58:08;;;;;;;3.30;1.10;;;;;;;;;;5092869;28;20408;-77
2023/05/23 11:00:34;;;;;;;4.03;2.10;;;;;;;;;;5093025;28;20456;-79
2023/05/23 11:03:05;;;;;;;5.43;0.93;;;;;;;;;;5092985;28;20515;-77
2023/05/23 11:05:32;;;;;;;3.30;1.33;;;;;;;;;;5093145;28;20423;-86
2023/05/23 11:08:08;;;;;;;5.47;1.00;;;;;;;;;;5093174;28;20953;-81
2023/05/23 11:10:53;;;;;;;3.63;0.80;;;;;;;;;;5093019;28;20418;-77
2023/05/23 11:13:20;;;;;;;4.17;1.10;;;;;;;;;;5092711;28;20415;-86
2023/05/23 11:15:46;;;;;;;4.60;0.87;;;;;;;;;;5091763;28;20508;-84
2023/05/23 11:18:27;;;;;;;3.73;1.03;;;;;;;;;;5093115;28;20462;-88
2023/05/23 11:20:54;;;;;;;2.37;1.70;;;;;;;;;;5092976;28;20805;-78
2023/05/23 11:23:21;;;;;;;3.33;1.43;;;;;;;;;;5093003;28;20927;-77
2023/05/23 11:25:51;;;;;;;5.70;1.00;;;;;;;;;;5093030;28;20447;-78
2023/05/23 11:28:17;;;;;;;6.23;1.37;;;;;;;;;;5091479;28;20511;-85
2023/05/23 11:30:43;;;;;;;5.20;1.50;;;;;;;;;;5093032;28;20726;-86
2023/05/23 11:33:12;;;;;;;5.57;1.00;;;;;;;;;;5092893;28;20506;-78
2023/05/23 11:35:42;;;;;;;4.73;1.10;;;;;;;;;;5092932;28;20892;-79
2023/05/23 11:38:08;;;;;;;4.47;1.00;;;;;;;;;;5092815;28;20456;-77
2023/05/23 11:40:36;;;;;;;3.63;1.30;;;;;;;;;;5092865;28;20466;-88
2023/05/23 11:43:03;;;;;;;3.33;1.00;;;;;;;;;;5092437;28;20469;-84
2023/05/23 11:45:30;;;;;;;2.80;1.10;;;;;;;;;;5092723;28;20404;-85
2023/05/23 11:47:56;;;;;;;2.67;0.67;;;;;;;;;;5092798;28;20533;-78
2023/05/23 11:50:25;;;;;;;3.80;0.67;;;;;;;;;;5092714;28;20430;-78
2023/05/23 11:52:54;;;;;;;3.30;0.97;;;;;;;;;;5092539;28;20505;-78
2023/05/23 11:55:21;;;;;;;4.40;1.73;;;;;;;;;;5092681;28;20401;-86
2023/05/23 11:57:47;;;;;;;2.67;1.27;;;;;;;;;;5092384;28;20452;-77
2023/05/23 12:00:13;;;;;;;3.87;1.10;;;;;;;;;;5092523;28;20421;-87
2023/05/23 12:02:42;;;;;;;3.50;1.30;;;;;;;;;;5092505;28;20470;-78
2023/05/23 12:05:09;;;;;;;3.97;1.53;;;;;;;;;;5094762;28;20503;-78
2023/05/23 12:07:35;;;;;;;8.73;2.10;;;;;;;;;;5096417;28;20417;-78
2023/05/23 12:10:02;;;;;;;6.33;1.80;;;;;;;;;;5102525;28;20402;-84
2023/05/23 12:12:28;;;;;;;6.63;0.90;;;;;;;;;;5115313;28;20420;-81
2023/05/23 12:14:58;;;;;;;3.23;0.73;;;;;;;;;;5116197;28;20412;-82
2023/05/23 12:17:24;;;;;;;3.70;2.03;;;;;;;;;;5116302;28;21087;-83
2023/05/23 12:19:50;;;;;;;2.70;1.50;;;;;;;;;;5115704;28;20885;-77
2023/05/23 12:22:22;;;;;;;6.27;1.10;;;;;;;;;;5097609;28;20525;-81
2023/05/23 12:24:48;;;;;;;4.37;1.17;;;;;;;;;;5114176;28;20390;-79
2023/05/23 12:27:17;;;;;;;5.43;1.33;;;;;;;;;;5115610;28;20422;-77
2023/05/23 12:29:50;;;;;;;3.50;0.90;;;;;;;;;;5113273;28;20543;-79
2023/05/23 12:32:16;;;;;;;2.80;1.17;;;;;;;;;;5115901;28;20410;-81
2023/05/23 12:34:42;;;;;;;2.10;0.63;;;;;;;;;;5112990;28;20883;-81
2023/05/23 12:37:08;;;;;;;4.60;1.50;;;;;;;;;;5115733;28;20633;-78
2023/05/23 12:39:35;;;;;;;3.17;0.87;;;;;;;;;;5115647;28;20407;-77
2023/05/23 12:42:08;;;;;;;4.47;1.00;;;;;;;;;;5115140;28;20903;-77
2023/05/23 12:44:34;;;;;;;5.53;1.13;;;;;;;;;;5115559;28;20885;-78
2023/05/23 12:47:00;;;;;;;3.50;1.23;;;;;;;;;;5115503;28;20916;-78
2023/05/23 12:49:26;;;;;;;2.20;0.90;;;;;;;;;;5115321;28;20466;-86
2023/05/23 12:51:52;;;;;;;5.83;1.37;;;;;;;;;;5115325;28;20501;-77
2023/05/23 12:54:18;;;;;;;3.37;1.70;;;;;;;;;;5114774;28;20424;-84
2023/05/23 12:56:44;;;;;;;3.83;1.00;;;;;;;;;;5102505;28;20195;-82
2023/05/23 12:59:10;;;;;;;5.77;1.50;;;;;;;;;;5095598;28;20474;-85
2023/05/23 13:01:36;;;;;;;4.60;0.90;;;;;;;;;;5104583;28;20278;-77
2023/05/23 13:04:02;;;;;;;2.33;0.90;;;;;;;;;;5073904;28;20816;-87
2023/05/23 13:06:28;;;;;;;2.80;1.07;;;;;;;;;;5073957;28;20629;-90
2023/05/23 13:08:54;;;;;;;4.60;0.80;;;;;;;;;;5073848;28;20177;-85
2023/05/23 13:11:21;;;;;;;4.90;1.40;;;;;;;;;;5074184;28;20494;-83
2023/05/23 13:13:47;;;;;;;3.10;0.80;;;24.70;1.00;;;;;;5074465;28;20895;-87
2023/05/23 13:16:13;;;;;;;2.90;0.90;;;24.50;1.00;;;;;;5074006;28;20459;-87
2023/05/23 13:18:40;;;;;;;4.27;2.83;;;;;;;;;;5106749;28;20466;-88
2023/05/23 13:21:06;;;;;;;8.57;1.63;;;22.90;99.90;;;;;;5073617;28;20421;-89
2023/05/23 13:23:36;;;;;;;5.40;1.60;;;;;;;;;;5074232;28;20512;-89
2023/05/23 13:26:02;;;;;;;9.03;1.50;;;;;;;;;;5074317;28;20160;-89
2023/05/23 13:28:28;;;;;;;2.77;1.60;;;;;;;;;;5073749;28;20501;-78
2023/05/23 13:30:54;;;;;;;3.20;1.07;;;;;;;;;;5074090;28;20422;-79
2023/05/23 13:33:21;;;;;;;11.47;1.67;;;;;;;;;;5106656;28;20427;-77
2023/05/23 13:35:49;;;;;;;4.43;0.93;;;;;;;;;;5106508;28;20413;-90
2023/05/23 13:38:15;;;;;;;5.77;1.43;;;;;;;;;;5105337;28;20415;-84
2023/05/23 13:40:41;;;;;;;6.03;0.80;;;;;;;;;;5073388;28;20435;-90
2023/05/23 13:43:07;;;;;;;6.60;2.10;;;;;;;;;;5073216;28;20219;-85
2023/05/23 13:45:33;;;;;;;3.83;1.13;;;;;;;;;;5072998;28;20176;-88
2023/05/23 13:47:59;;;;;;;2.33;0.97;;;;;;;;;;5073384;28;20649;-88
2023/05/23 13:50:26;;;;;;;8.40;2.17;;;;;;;;;;5073577;28;20465;-88
2023/05/23 13:52:51;;;;;;;4.53;1.20;;;;;;;;;;5073568;28;20404;-91
2023/05/23 13:55:21;;;;;;;4.20;1.37;;;;;;;;;;5073689;28;20902;-89
2023/05/23 13:57:47;;;;;;;5.40;2.07;;;;;;;;;;5073184;28;20214;-90
2023/05/23 14:00:13;;;;;;;4.67;0.97;;;;;;;;;;5074097;28;20498;-89
2023/05/23 14:02:39;;;;;;;5.00;1.13;;;;;;;;;;5113930;28;20872;-88
2023/05/23 14:05:06;;;;;;;4.33;1.40;;;;;;;;;;5113961;28;20491;-89
2023/05/23 14:07:32;;;;;;;7.60;1.83;;;;;;;;;;5113924;28;20409;-87
2023/05/23 14:09:58;;;;;;;6.90;1.90;;;;;;;;;;5113988;28;20408;-84
2023/05/23 14:12:25;;;;;;;4.00;1.03;;;;;;;;;;5112766;28;20246;-89
2023/05/23 14:14:51;;;;;;;3.73;0.87;;;;;;;;;;5113187;28;20411;-80
2023/05/23 14:17:17;;;;;;;3.53;1.17;;;;;;;;;;5113493;28;20500;-78
2023/05/23 14:19:43;;;;;;;2.80;1.00;;;;;;;;;;5113107;28;20496;-78
2023/05/23 14:22:10;;;;;;;2.90;1.30;;;;;;;;;;5113583;28;20479;-91
2023/05/23 14:24:36;;;;;;;5.67;1.10;;;;;;;;;;5113226;28;20492;-79
2023/05/23 14:27:02;;;;;;;3.20;0.70;;;;;;;;;;5112328;28;20543;-79
2023/05/23 14:29:28;;;;;;;5.30;1.10;;;;;;;;;;5112468;28;20257;-78